sensor_id;sensor_type;location;lat;lon;timestamp;pressure;altitude;pressure_sealevel;temperature;humidity
72677;BME280;60755;51.374;10.662;2022-12-07T00:00:00;97012.84;;;0.54;100.00
72677;BME280;60755;51.374;10.662;2022-12-07T00:02:27;97015.41;;;0.54;100.00
72677;BME280;60755;51.374;10.662;2022-12-07T00:04:54;97017.50;;;0.59;100.00
72677;BME280;60755;51.374;10.662;2022-12-07T00:07:20;97012.66;;;0.70;100.00
72677;BME280;60755;51.374;10.662;2022-12-07T00:09:47;97009.03;;;0.65;100.00
72677;BME280;60755;51.374;10.662;2022-12-07T00:12:14;96999.91;;;0.54;100.00
72677;BME280;60755;51.374;10.662;2022-12-07T00:14:42;96997.50;;;0.52;100.00
72677;BME280;60755;51.374;10.662;2022-12-07T00:17:08;96999.56;;;0.57;100.00
72677;BME280;60755;51.374;10.662;2022-12-07T00:19:35;96994.22;;;0.59;100.00
72677;BME280;60755;51.374;10.662;2022-12-07T00:22:02;96987.38;;;0.66;100.00
72677;BME280;60755;51.374;10.662;2022-12-07T00:24:29;96988.25;;;0.58;100.00
72677;BME280;60755;51.374;10.662;2022-12-07T00:26:55;96992.69;;;0.79;100.00
72677;BME280;60755;51.374;10.662;2022-12-07T00:29:22;96994.75;;;0.98;100.00
72677;BME280;60755;51.374;10.662;2022-12-07T00:31:50;96994.94;;;0.82;100.00
72677;BME280;60755;51.374;10.662;2022-12-07T00:34:19;96991.72;;;0.80;100.00
72677;BME280;60755;51.374;10.662;2022-12-07T00:36:46;96984.31;;;0.92;100.00
72677;BME280;60755;51.374;10.662;2022-12-07T00:39:13;96984.53;;;1.11;100.00
72677;BME280;60755;51.374;10.662;2022-12-07T00:41:40;96984.41;;;0.98;100.00
72677;BME280;60755;51.374;10.662;2022-12-07T00:44:07;96982.00;;;0.97;100.00
72677;BME280;60755;51.374;10.662;2022-12-07T00:46:34;96976.00;;;0.96;100.00
72677;BME280;60755;51.374;10.662;2022-12-07T00:49:02;96976.84;;;0.97;100.00
72677;BME280;60755;51.374;10.662;2022-12-07T00:51:28;96978.66;;;1.18;100.00
72677;BME280;60755;51.374;10.662;2022-12-07T00:53:55;96967.78;;;1.07;100.00
72677;BME280;60755;51.374;10.662;2022-12-07T00:56:24;96969.81;;;1.12;100.00
72677;BME280;60755;51.374;10.662;2022-12-07T00:58:53;96971.09;;;1.01;100.00
72677;BME280;60755;51.374;10.662;2022-12-07T01:01:21;96971.97;;;1.08;100.00
72677;BME280;60755;51.374;10.662;2022-12-07T01:03:48;96966.69;;;1.17;100.00
72677;BME280;60755;51.374;10.662;2022-12-07T01:06:18;96972.25;;;1.14;100.00
72677;BME280;60755;51.374;10.662;2022-12-07T01:08:45;96962.88;;;1.13;100.00
72677;BME280;60755;51.374;10.662;2022-12-07T01:11:15;96954.59;;;1.02;100.00
72677;BME280;60755;51.374;10.662;2022-12-07T01:13:42;96955.38;;;1.03;100.00
72677;BME280;60755;51.374;10.662;2022-12-07T01:16:12;96955.47;;;1.09;100.00
72677;BME280;60755;51.374;10.662;2022-12-07T01:18:39;96947.09;;;1.07;100.00
72677;BME280;60755;51.374;10.662;2022-12-07T01:21:09;96945.84;;;1.03;100.00
72677;BME280;60755;51.374;10.662;2022-12-07T01:23:38;96945.91;;;1.10;100.00
72677;BME280;60755;51.374;10.662;2022-12-07T01:26:08;96939.44;;;0.99;100.00
72677;BME280;60755;51.374;10.662;2022-12-07T01:28:36;96944.50;;;1.07;100.00
72677;BME280;60755;51.374;10.662;2022-12-07T01:31:05;96934.06;;;1.16;100.00
72677;BME280;60755;51.374;10.662;2022-12-07T01:33:35;96939.72;;;1.26;100.00
72677;BME280;60755;51.374;10.662;2022-12-07T01:36:03;96935.16;;;1.06;100.00
72677;BME280;60755;51.374;10.662;2022-12-07T01:38:30;96938.28;;;1.02;100.00
72677;BME280;60755;51.374;10.662;2022-12-07T01:40:59;96939.94;;;1.09;100.00
72677;BME280;60755;51.374;10.662;2022-12-07T01:43:29;96928.06;;;1.15;100.00
72677;BME280;60755;51.374;10.662;2022-12-07T01:45:56;96928.00;;;1.08;100.00
72677;BME280;60755;51.374;10.662;2022-12-07T01:48:27;96925.53;;;1.00;100.00
72677;BME280;60755;51.374;10.662;2022-12-07T01:50:56;96923.41;;;0.89;100.00
72677;BME280;60755;51.374;10.662;2022-12-07T01:53:27;96921.69;;;0.96;100.00
72677;BME280;60755;51.374;10.662;2022-12-07T01:55:57;96923.72;;;1.01;100.00
72677;BME280;60755;51.374;10.662;2022-12-07T01:58:25;96923.31;;;1.19;100.00
72677;BME280;60755;51.374;10.662;2022-12-07T02:00:52;96930.78;;;1.28;100.00
72677;BME280;60755;51.374;10.662;2022-12-07T02:03:22;96930.09;;;1.20;100.00
72677;BME280;60755;51.374;10.662;2022-12-07T02:05:51;96925.31;;;1.17;100.00
72677;BME280;60755;51.374;10.662;2022-12-07T02:08:20;96928.00;;;1.08;100.00
72677;BME280;60755;51.374;10.662;2022-12-07T02:10:47;96923.63;;;1.09;100.00
72677;BME280;60755;51.374;10.662;2022-12-07T02:13:16;96918.06;;;1.12;100.00
72677;BME280;60755;51.374;10.662;2022-12-07T02:15:55;96920.63;;;1.05;100.00
72677;BME280;60755;51.374;10.662;2022-12-07T02:18:35;96906.88;;;1.05;100.00
72677;BME280;60755;51.374;10.662;2022-12-07T02:21:09;96909.34;;;1.13;100.00
72677;BME280;60755;51.374;10.662;2022-12-07T02:23:58;96901.75;;;1.11;100.00
72677;BME280;60755;51.374;10.662;2022-12-07T02:26:55;96896.94;;;1.08;100.00
72677;BME280;60755;51.374;10.662;2022-12-07T02:29:27;96901.88;;;1.03;100.00
72677;BME280;60755;51.374;10.662;2022-12-07T02:32:04;96895.44;;;1.14;100.00
72677;BME280;60755;51.374;10.662;2022-12-07T02:34:39;96896.53;;;1.05;100.00
72677;BME280;60755;51.374;10.662;2022-12-07T02:37:15;96888.50;;;1.00;100.00
72677;BME280;60755;51.374;10.662;2022-12-07T02:39:49;96885.44;;;1.11;100.00
72677;BME280;60755;51.374;10.662;2022-12-07T02:42:19;96894.47;;;1.00;100.00
72677;BME280;60755;51.374;10.662;2022-12-07T02:44:51;96890.72;;;1.03;100.00
72677;BME280;60755;51.374;10.662;2022-12-07T02:47:20;96888.50;;;1.00;100.00
72677;BME280;60755;51.374;10.662;2022-12-07T02:49:49;96884.50;;;0.97;100.00
72677;BME280;60755;51.374;10.662;2022-12-07T02:52:16;96886.44;;;0.95;100.00
72677;BME280;60755;51.374;10.662;2022-12-07T02:54:42;96883.16;;;1.01;100.00
72677;BME280;60755;51.374;10.662;2022-12-07T02:57:21;96883.88;;;0.95;100.00
72677;BME280;60755;51.374;10.662;2022-12-07T03:00:00;96887.09;;;0.97;100.00
72677;BME280;60755;51.374;10.662;2022-12-07T03:02:36;96883.00;;;0.88;100.00
72677;BME280;60755;51.374;10.662;2022-12-07T03:05:20;96880.94;;;0.98;100.00
72677;BME280;60755;51.374;10.662;2022-12-07T03:07:55;96874.78;;;0.99;100.00
72677;BME280;60755;51.374;10.662;2022-12-07T03:10:35;96875.38;;;1.01;100.00
72677;BME280;60755;51.374;10.662;2022-12-07T03:13:07;96870.03;;;1.03;100.00
72677;BME280;60755;51.374;10.662;2022-12-07T03:15:40;96868.75;;;1.14;100.00
72677;BME280;60755;51.374;10.662;2022-12-07T03:18:12;96868.06;;;1.05;100.00
72677;BME280;60755;51.374;10.662;2022-12-07T03:20:41;96872.44;;;1.26;100.00
72677;BME280;60755;51.374;10.662;2022-12-07T03:23:12;96868.88;;;1.27;100.00
72677;BME280;60755;51.374;10.662;2022-12-07T03:25:41;96862.81;;;1.20;100.00
72677;BME280;60755;51.374;10.662;2022-12-07T03:28:09;96856.91;;;1.26;100.00
72677;BME280;60755;51.374;10.662;2022-12-07T03:30:43;96869.72;;;1.34;100.00
72677;BME280;60755;51.374;10.662;2022-12-07T03:33:16;96857.66;;;1.41;100.00
72677;BME280;60755;51.374;10.662;2022-12-07T03:35:51;96863.94;;;1.32;100.00
72677;BME280;60755;51.374;10.662;2022-12-07T03:38:22;96861.59;;;1.37;100.00
72677;BME280;60755;51.374;10.662;2022-12-07T03:40:57;96864.53;;;1.55;100.00
72677;BME280;60755;51.374;10.662;2022-12-07T03:43:25;96851.59;;;1.55;100.00
72677;BME280;60755;51.374;10.662;2022-12-07T03:46:01;96851.59;;;1.55;100.00
72677;BME280;60755;51.374;10.662;2022-12-07T03:48:37;96854.06;;;1.63;100.00
72677;BME280;60755;51.374;10.662;2022-12-07T03:51:13;96851.06;;;1.66;100.00
72677;BME280;60755;51.374;10.662;2022-12-07T03:53:44;96848.22;;;1.55;100.00
72677;BME280;60755;51.374;10.662;2022-12-07T03:56:13;96850.00;;;1.54;100.00
72677;BME280;60755;51.374;10.662;2022-12-07T03:58:41;96840.13;;;1.43;100.00
72677;BME280;60755;51.374;10.662;2022-12-07T04:01:10;96845.16;;;1.45;100.00
72677;BME280;60755;51.374;10.662;2022-12-07T04:03:37;96845.44;;;1.56;100.00
72677;BME280;60755;51.374;10.662;2022-12-07T04:06:04;96841.56;;;1.74;100.00
72677;BME280;60755;51.374;10.662;2022-12-07T04:08:31;96837.91;;;1.61;100.00
72677;BME280;60755;51.374;10.662;2022-12-07T04:10:58;96835.81;;;1.50;100.00
72677;BME280;60755;51.374;10.662;2022-12-07T04:13:25;96845.09;;;1.66;100.00
72677;BME280;60755;51.374;10.662;2022-12-07T04:15:52;96841.66;;;1.59;100.00
72677;BME280;60755;51.374;10.662;2022-12-07T04:18:20;96841.09;;;1.91;100.00
72677;BME280;60755;51.374;10.662;2022-12-07T04:20:46;96843.31;;;1.66;100.00
72677;BME280;60755;51.374;10.662;2022-12-07T04:23:13;96837.47;;;1.86;100.00
72677;BME280;60755;51.374;10.662;2022-12-07T04:25:40;96837.53;;;1.64;100.00
72677;BME280;60755;51.374;10.662;2022-12-07T04:28:07;96845.00;;;1.81;100.00
72677;BME280;60755;51.374;10.662;2022-12-07T04:30:34;96837.19;;;1.74;100.00
72677;BME280;60755;51.374;10.662;2022-12-07T04:33:00;96839.78;;;1.74;100.00
72677;BME280;60755;51.374;10.662;2022-12-07T04:35:28;96833.75;;;1.67;100.00
72677;BME280;60755;51.374;10.662;2022-12-07T04:37:55;96837.25;;;1.81;100.00
72677;BME280;60755;51.374;10.662;2022-12-07T04:40:22;96842.97;;;1.76;100.00
72677;BME280;60755;51.374;10.662;2022-12-07T04:42:48;96844.66;;;1.90;100.00
72677;BME280;60755;51.374;10.662;2022-12-07T04:45:15;96838.44;;;1.78;100.00
72677;BME280;60755;51.374;10.662;2022-12-07T04:47:42;96839.84;;;1.81;100.00
72677;BME280;60755;51.374;10.662;2022-12-07T04:50:10;96839.78;;;1.74;100.00
72677;BME280;60755;51.374;10.662;2022-12-07T04:52:38;96839.09;;;1.87;100.00
72677;BME280;60755;51.374;10.662;2022-12-07T04:55:05;96839.69;;;1.89;100.00
72677;BME280;60755;51.374;10.662;2022-12-07T04:57:32;96848.59;;;1.80;100.00
72677;BME280;60755;51.374;10.662;2022-12-07T04:59:58;96845.72;;;1.96;100.00
72677;BME280;60755;51.374;10.662;2022-12-07T05:02:25;96845.47;;;1.91;100.00
72677;BME280;60755;51.374;10.662;2022-12-07T05:04:52;96859.41;;;1.90;100.00
72677;BME280;60755;51.374;10.662;2022-12-07T05:07:18;96848.34;;;1.75;100.00
72677;BME280;60755;51.374;10.662;2022-12-07T05:09:46;96844.53;;;1.71;100.00
72677;BME280;60755;51.374;10.662;2022-12-07T05:12:13;96846.53;;;1.68;100.00
72677;BME280;60755;51.374;10.662;2022-12-07T05:14:40;96843.44;;;1.58;100.00
72677;BME280;60755;51.374;10.662;2022-12-07T05:17:07;96847.00;;;1.79;100.00
72677;BME280;60755;51.374;10.662;2022-12-07T05:19:34;96850.44;;;1.86;100.00
72677;BME280;60755;51.374;10.662;2022-12-07T05:22:01;96855.22;;;1.89;100.00
72677;BME280;60755;51.374;10.662;2022-12-07T05:24:28;96843.41;;;1.80;100.00
72677;BME280;60755;51.374;10.662;2022-12-07T05:26:56;96844.53;;;1.71;100.00
72677;BME280;60755;51.374;10.662;2022-12-07T05:29:22;96842.69;;;1.64;100.00
72677;BME280;60755;51.374;10.662;2022-12-07T05:31:49;96844.53;;;1.71;100.00
72677;BME280;60755;51.374;10.662;2022-12-07T05:34:16;96840.13;;;1.64;100.00
72677;BME280;60755;51.374;10.662;2022-12-07T05:36:43;96845.09;;;1.66;100.00
72677;BME280;60755;51.374;10.662;2022-12-07T05:39:09;96845.16;;;1.73;100.00
72677;BME280;60755;51.374;10.662;2022-12-07T05:41:36;96846.53;;;1.68;100.00
72677;BME280;60755;51.374;10.662;2022-12-07T05:44:22;96844.44;;;1.57;100.00
72677;BME280;60755;51.374;10.662;2022-12-07T05:46:49;96852.47;;;1.62;100.00
72677;BME280;60755;51.374;10.662;2022-12-07T05:49:16;96853.78;;;1.80;100.00
72677;BME280;60755;51.374;10.662;2022-12-07T05:51:42;96843.41;;;1.80;100.00
72677;BME280;60755;51.374;10.662;2022-12-07T05:54:09;96837.00;;;1.76;100.00
72677;BME280;60755;51.374;10.662;2022-12-07T05:56:36;96841.09;;;1.63;100.00
72677;BME280;60755;51.374;10.662;2022-12-07T05:59:02;96838.94;;;1.67;100.00
72677;BME280;60755;51.374;10.662;2022-12-07T06:01:48;96833.34;;;1.63;100.00
72677;BME280;60755;51.374;10.662;2022-12-07T06:04:15;96843.50;;;1.93;100.00
72677;BME280;60755;51.374;10.662;2022-12-07T06:06:42;96849.59;;;1.79;100.00
72677;BME280;60755;51.374;10.662;2022-12-07T06:09:09;96841.91;;;1.64;100.00
72677;BME280;60755;51.374;10.662;2022-12-07T06:11:36;96844.41;;;1.79;100.00
72677;BME280;60755;51.374;10.662;2022-12-07T06:14:20;96838.03;;;1.81;100.00
72677;BME280;60755;51.374;10.662;2022-12-07T06:16:49;96830.28;;;1.81;100.00
72677;BME280;60755;51.374;10.662;2022-12-07T06:19:15;96834.25;;;1.84;100.00
72677;BME280;60755;51.374;10.662;2022-12-07T06:21:42;96831.81;;;1.76;100.00
72677;BME280;60755;51.374;10.662;2022-12-07T06:24:10;96830.28;;;1.81;100.00
72677;BME280;60755;51.374;10.662;2022-12-07T06:26:37;96828.72;;;1.87;100.00
72677;BME280;60755;51.374;10.662;2022-12-07T06:29:04;96827.97;;;1.93;100.00
72677;BME280;60755;51.374;10.662;2022-12-07T06:31:31;96837.00;;;1.76;100.00
72677;BME280;60755;51.374;10.662;2022-12-07T06:33:59;96845.41;;;1.84;100.00
72677;BME280;60755;51.374;10.662;2022-12-07T06:36:26;96835.16;;;1.98;100.00
72677;BME280;60755;51.374;10.662;2022-12-07T06:38:54;96838.53;;;1.98;100.00
72677;BME280;60755;51.374;10.662;2022-12-07T06:41:21;96836.75;;;1.99;100.00
72677;BME280;60755;51.374;10.662;2022-12-07T06:43:48;96841.56;;;2.02;100.00
72677;BME280;60755;51.374;10.662;2022-12-07T06:46:15;96832.19;;;2.01;100.00
72677;BME280;60755;51.374;10.662;2022-12-07T06:48:42;96830.47;;;2.14;100.00
72677;BME280;60755;51.374;10.662;2022-12-07T06:51:10;96837.97;;;2.03;100.00
72677;BME280;60755;51.374;10.662;2022-12-07T06:53:37;96828.19;;;1.98;100.00
72677;BME280;60755;51.374;10.662;2022-12-07T06:56:04;96837.94;;;1.96;100.00
72677;BME280;60755;51.374;10.662;2022-12-07T06:58:31;96824.38;;;1.94;100.00
72677;BME280;60755;51.374;10.662;2022-12-07T07:00:58;96839.28;;;1.92;100.00
72677;BME280;60755;51.374;10.662;2022-12-07T07:03:24;96840.91;;;1.93;100.00
72677;BME280;60755;51.374;10.662;2022-12-07T07:05:51;96844.56;;;2.05;100.00
72677;BME280;60755;51.374;10.662;2022-12-07T07:08:19;96850.75;;;2.04;100.00
72677;BME280;60755;51.374;10.662;2022-12-07T07:10:46;96850.69;;;1.98;100.00
72677;BME280;60755;51.374;10.662;2022-12-07T07:13:12;96842.72;;;1.99;100.00
72677;BME280;60755;51.374;10.662;2022-12-07T07:15:39;96851.00;;;2.09;100.00
72677;BME280;60755;51.374;10.662;2022-12-07T07:18:06;96841.56;;;2.02;100.00
72677;BME280;60755;51.374;10.662;2022-12-07T07:20:32;96851.31;;;2.00;100.00
72677;BME280;60755;51.374;10.662;2022-12-07T07:22:59;96846.84;;;2.21;100.00
72677;BME280;60755;51.374;10.662;2022-12-07T07:25:28;96845.41;;;2.12;100.00
72677;BME280;60755;51.374;10.662;2022-12-07T07:27:54;96844.56;;;2.05;100.00
72677;BME280;60755;51.374;10.662;2022-12-07T07:30:22;96840.00;;;2.07;100.00
72677;BME280;60755;51.374;10.662;2022-12-07T07:32:49;96839.63;;;2.10;100.00
72677;BME280;60755;51.374;10.662;2022-12-07T07:35:16;96843.25;;;2.22;100.00
72677;BME280;60755;51.374;10.662;2022-12-07T07:37:42;96841.31;;;2.31;100.00
72677;BME280;60755;51.374;10.662;2022-12-07T07:40:10;96837.47;;;2.20;100.00
72677;BME280;60755;51.374;10.662;2022-12-07T07:42:38;96834.88;;;2.20;100.00
72677;BME280;60755;51.374;10.662;2022-12-07T07:45:08;96843.69;;;2.26;100.00
72677;BME280;60755;51.374;10.662;2022-12-07T07:47:35;96852.03;;;2.21;100.00
72677;BME280;60755;51.374;10.662;2022-12-07T07:50:02;96858.44;;;2.26;100.00
72677;BME280;60755;51.374;10.662;2022-12-07T07:52:29;96855.69;;;2.34;99.92
72677;BME280;60755;51.374;10.662;2022-12-07T07:54:55;96848.75;;;2.41;99.88
72677;BME280;60755;51.374;10.662;2022-12-07T07:57:22;96858.09;;;2.35;100.00
72677;BME280;60755;51.374;10.662;2022-12-07T07:59:50;96856.91;;;2.38;100.00
72677;BME280;60755;51.374;10.662;2022-12-07T08:02:18;96855.06;;;2.32;100.00
72677;BME280;60755;51.374;10.662;2022-12-07T08:04:45;96855.78;;;2.53;99.76
72677;BME280;60755;51.374;10.662;2022-12-07T08:07:13;96854.91;;;2.40;99.98
72677;BME280;60755;51.374;10.662;2022-12-07T08:09:41;96855.91;;;2.39;99.28
72677;BME280;60755;51.374;10.662;2022-12-07T08:12:08;96858.66;;;2.31;100.00
72677;BME280;60755;51.374;10.662;2022-12-07T08:14:34;96858.03;;;2.22;100.00
72677;BME280;60755;51.374;10.662;2022-12-07T08:17:03;96858.22;;;2.20;100.00
72677;BME280;60755;51.374;10.662;2022-12-07T08:19:29;96860.50;;;2.37;100.00
72677;BME280;60755;51.374;10.662;2022-12-07T08:21:56;96859.66;;;2.30;100.00
72677;BME280;60755;51.374;10.662;2022-12-07T08:24:23;96863.25;;;2.29;100.00
72677;BME280;60755;51.374;10.662;2022-12-07T08:26:50;96867.28;;;2.38;100.00
72677;BME280;60755;51.374;10.662;2022-12-07T08:29:17;96860.44;;;2.71;98.50
72677;BME280;60755;51.374;10.662;2022-12-07T08:31:44;96855.41;;;2.63;97.65
72677;BME280;60755;51.374;10.662;2022-12-07T08:34:13;96858.22;;;2.62;97.66
72677;BME280;60755;51.374;10.662;2022-12-07T08:36:40;96854.22;;;2.59;97.66
72677;BME280;60755;51.374;10.662;2022-12-07T08:39:07;96863.00;;;2.58;98.80
72677;BME280;60755;51.374;10.662;2022-12-07T08:41:34;96865.16;;;2.55;100.00
72677;BME280;60755;51.374;10.662;2022-12-07T08:44:01;96861.41;;;2.64;99.42
72677;BME280;60755;51.374;10.662;2022-12-07T08:46:31;96866.94;;;2.54;98.84
72677;BME280;60755;51.374;10.662;2022-12-07T08:49:03;96871.34;;;2.53;98.89
72677;BME280;60755;51.374;10.662;2022-12-07T08:51:35;96861.56;;;2.49;99.17
72677;BME280;60755;51.374;10.662;2022-12-07T08:54:05;96866.94;;;2.54;99.66
72677;BME280;60755;51.374;10.662;2022-12-07T08:56:33;96872.31;;;2.46;100.00
72677;BME280;60755;51.374;10.662;2022-12-07T08:59:01;96861.72;;;2.47;99.51
72677;BME280;60755;51.374;10.662;2022-12-07T09:01:28;96867.63;;;2.28;99.33
72677;BME280;60755;51.374;10.662;2022-12-07T09:03:55;96871.41;;;2.26;100.00
72677;BME280;60755;51.374;10.662;2022-12-07T09:06:22;96879.03;;;2.40;98.79
72677;BME280;60755;51.374;10.662;2022-12-07T09:08:53;96874.69;;;2.41;99.10
72677;BME280;60755;51.374;10.662;2022-12-07T09:11:21;96875.66;;;2.40;99.40
72677;BME280;60755;51.374;10.662;2022-12-07T09:13:48;96886.53;;;2.63;96.30
72677;BME280;60755;51.374;10.662;2022-12-07T09:16:15;96881.63;;;2.34;98.91
72677;BME280;60755;51.374;10.662;2022-12-07T09:18:42;96882.91;;;2.51;98.03
72677;BME280;60755;51.374;10.662;2022-12-07T09:21:09;96875.38;;;2.63;98.28
72677;BME280;60755;51.374;10.662;2022-12-07T09:23:36;96872.25;;;2.74;96.65
72677;BME280;60755;51.374;10.662;2022-12-07T09:26:04;96877.25;;;2.89;94.56
72677;BME280;60755;51.374;10.662;2022-12-07T09:28:31;96873.22;;;2.73;95.88
72677;BME280;60755;51.374;10.662;2022-12-07T09:30:58;96877.44;;;2.74;96.74
72677;BME280;60755;51.374;10.662;2022-12-07T09:33:25;96881.13;;;2.51;98.18
72677;BME280;60755;51.374;10.662;2022-12-07T09:35:52;96875.72;;;2.53;97.41
72677;BME280;60755;51.374;10.662;2022-12-07T09:38:20;96882.91;;;2.51;96.70
72677;BME280;60755;51.374;10.662;2022-12-07T09:40:47;96880.16;;;2.59;98.61
72677;BME280;60755;51.374;10.662;2022-12-07T09:43:18;96869.31;;;2.42;96.76
72677;BME280;60755;51.374;10.662;2022-12-07T09:45:47;96870.47;;;2.40;97.53
72677;BME280;60755;51.374;10.662;2022-12-07T09:48:17;96869.50;;;2.41;96.61
72677;BME280;60755;51.374;10.662;2022-12-07T09:50:47;96872.56;;;2.64;97.59
72677;BME280;60755;51.374;10.662;2022-12-07T09:53:20;96870.22;;;2.69;94.58
72677;BME280;60755;51.374;10.662;2022-12-07T09:55:49;96869.81;;;2.66;96.78
72677;BME280;60755;51.374;10.662;2022-12-07T09:58:20;96871.44;;;2.73;95.36
72677;BME280;60755;51.374;10.662;2022-12-07T10:00:48;96878.66;;;2.85;95.46
72677;BME280;60755;51.374;10.662;2022-12-07T10:03:15;96871.09;;;2.90;93.17
72677;BME280;60755;51.374;10.662;2022-12-07T10:05:45;96866.16;;;2.53;95.29
72677;BME280;60755;51.374;10.662;2022-12-07T10:08:13;96867.78;;;2.61;95.69
72677;BME280;60755;51.374;10.662;2022-12-07T10:10:41;96864.34;;;2.54;97.05
72677;BME280;60755;51.374;10.662;2022-12-07T10:13:10;96859.59;;;2.64;96.24
72677;BME280;60755;51.374;10.662;2022-12-07T10:15:44;96859.25;;;2.80;95.50
72677;BME280;60755;51.374;10.662;2022-12-07T10:18:36;96858.47;;;2.73;95.15
72677;BME280;60755;51.374;10.662;2022-12-07T10:21:12;96861.63;;;2.69;96.45
72677;BME280;60755;51.374;10.662;2022-12-07T10:23:41;96861.06;;;2.73;94.11
72677;BME280;60755;51.374;10.662;2022-12-07T10:26:21;96860.88;;;2.82;94.48
72677;BME280;60755;51.374;10.662;2022-12-07T10:28:52;96857.28;;;2.76;93.67
72677;BME280;60755;51.374;10.662;2022-12-07T10:31:21;96847.28;;;2.73;93.75
72677;BME280;60755;51.374;10.662;2022-12-07T10:33:50;96852.13;;;2.96;94.09
72677;BME280;60755;51.374;10.662;2022-12-07T10:36:21;96851.91;;;2.84;93.92
72677;BME280;60755;51.374;10.662;2022-12-07T10:38:50;96851.53;;;2.94;92.79
72677;BME280;60755;51.374;10.662;2022-12-07T10:41:17;96851.91;;;2.84;93.44
72677;BME280;60755;51.374;10.662;2022-12-07T10:43:50;96844.97;;;3.04;94.08
72677;BME280;60755;51.374;10.662;2022-12-07T10:46:29;96847.19;;;3.14;92.48
72677;BME280;60755;51.374;10.662;2022-12-07T10:49:13;96838.22;;;3.36;90.75
72677;BME280;60755;51.374;10.662;2022-12-07T10:51:47;96845.19;;;3.16;93.29
72677;BME280;60755;51.374;10.662;2022-12-07T10:54:26;96838.00;;;3.18;92.12
72677;BME280;60755;51.374;10.662;2022-12-07T10:57:06;96838.38;;;3.08;92.62
72677;BME280;60755;51.374;10.662;2022-12-07T11:00:08;96841.19;;;3.07;92.08
72677;BME280;60755;51.374;10.662;2022-12-07T11:02:54;96845.91;;;2.84;94.41
72677;BME280;60755;51.374;10.662;2022-12-07T11:05:28;96836.75;;;2.94;93.85
72677;BME280;60755;51.374;10.662;2022-12-07T11:08:03;96829.38;;;2.91;93.84
72677;BME280;60755;51.374;10.662;2022-12-07T11:10:41;96828.34;;;2.79;94.22
72677;BME280;60755;51.374;10.662;2022-12-07T11:13:20;96830.53;;;2.89;93.84
72677;BME280;60755;51.374;10.662;2022-12-07T11:16:04;96832.00;;;2.98;93.22
72677;BME280;60755;51.374;10.662;2022-12-07T11:18:41;96833.38;;;2.94;93.54
72677;BME280;60755;51.374;10.662;2022-12-07T11:21:16;96831.53;;;2.88;93.52
72677;BME280;60755;51.374;10.662;2022-12-07T11:23:49;96834.06;;;2.61;94.88
72677;BME280;60755;51.374;10.662;2022-12-07T11:26:29;96830.28;;;2.57;93.87
72677;BME280;60755;51.374;10.662;2022-12-07T11:29:19;96826.75;;;2.85;94.01
72677;BME280;60755;51.374;10.662;2022-12-07T11:31:58;96824.56;;;2.95;93.69
72677;BME280;60755;51.374;10.662;2022-12-07T11:34:37;96835.50;;;2.70;94.80
72677;BME280;60755;51.374;10.662;2022-12-07T11:37:10;96821.19;;;2.81;94.95
72677;BME280;60755;51.374;10.662;2022-12-07T11:39:44;96830.72;;;2.80;93.63
72677;BME280;60755;51.374;10.662;2022-12-07T11:42:16;96825.75;;;2.79;93.95
72677;BME280;60755;51.374;10.662;2022-12-07T11:44:50;96821.97;;;2.88;92.88
72677;BME280;60755;51.374;10.662;2022-12-07T11:47:25;96829.19;;;2.99;92.70
72677;BME280;60755;51.374;10.662;2022-12-07T11:49:58;96813.78;;;2.85;93.52
72677;BME280;60755;51.374;10.662;2022-12-07T11:52:34;96827.56;;;2.92;92.05
72677;BME280;60755;51.374;10.662;2022-12-07T11:55:16;96814.41;;;3.00;91.52
72677;BME280;60755;51.374;10.662;2022-12-07T11:57:51;96817.59;;;2.82;92.46
72677;BME280;60755;51.374;10.662;2022-12-07T12:00:19;96818.56;;;2.74;93.68
72677;BME280;60755;51.374;10.662;2022-12-07T12:02:51;96816.34;;;2.78;93.13
72677;BME280;60755;51.374;10.662;2022-12-07T12:05:21;96818.28;;;2.56;92.50
72677;BME280;60755;51.374;10.662;2022-12-07T12:07:53;96816.72;;;2.68;92.81
72677;BME280;60755;51.374;10.662;2022-12-07T12:10:30;96813.25;;;3.16;90.44
72677;BME280;60755;51.374;10.662;2022-12-07T12:13:19;96812.47;;;3.22;89.84
72677;BME280;60755;51.374;10.662;2022-12-07T12:16:05;96812.44;;;3.35;89.79
72677;BME280;60755;51.374;10.662;2022-12-07T12:18:52;96803.44;;;2.98;89.70
72677;BME280;60755;51.374;10.662;2022-12-07T12:21:28;96812.59;;;2.94;91.59
72677;BME280;60755;51.374;10.662;2022-12-07T12:23:58;96812.00;;;2.92;91.83
72677;BME280;60755;51.374;10.662;2022-12-07T12:26:28;96806.22;;;3.03;90.47
72677;BME280;60755;51.374;10.662;2022-12-07T12:28:58;96799.66;;;3.27;90.64
72677;BME280;60755;51.374;10.662;2022-12-07T12:31:33;96794.25;;;3.28;90.19
72677;BME280;60755;51.374;10.662;2022-12-07T12:34:04;96788.47;;;3.26;90.67
72677;BME280;60755;51.374;10.662;2022-12-07T12:36:46;96792.88;;;3.26;89.48
72677;BME280;60755;51.374;10.662;2022-12-07T12:39:14;96794.25;;;3.02;90.00
72677;BME280;60755;51.374;10.662;2022-12-07T12:42:17;96788.06;;;2.90;90.27
72677;BME280;60755;51.374;10.662;2022-12-07T12:45:04;96796.03;;;2.95;90.44
72677;BME280;60755;51.374;10.662;2022-12-07T12:47:56;96796.06;;;3.08;89.20
72677;BME280;60755;51.374;10.662;2022-12-07T12:50:26;96787.63;;;2.79;89.91
72677;BME280;60755;51.374;10.662;2022-12-07T12:53:16;96790.44;;;2.85;90.57
72677;BME280;60755;51.374;10.662;2022-12-07T12:56:04;96793.41;;;2.75;90.76
72677;BME280;60755;51.374;10.662;2022-12-07T12:58:37;96785.25;;;2.85;90.73
72677;BME280;60755;51.374;10.662;2022-12-07T13:04:48;96775.69;;;2.92;90.04
72677;BME280;60755;51.374;10.662;2022-12-07T13:07:52;96781.84;;;2.84;88.98
72677;BME280;60755;51.374;10.662;2022-12-07T13:10:33;96779.66;;;2.94;89.23
72677;BME280;60755;51.374;10.662;2022-12-07T13:13:03;96776.25;;;2.87;89.60